createdAt,value
2018-07-01T00:00:45.877Z,27.19
2018-07-01T00:03:14.406Z,27.16
2018-07-01T00:05:43.043Z,27.27
2018-07-01T00:08:11.922Z,28.32
2018-07-01T00:10:40.466Z,27.42
2018-07-01T00:13:11.808Z,27.70
2018-07-01T00:15:54.833Z,27.89
2018-07-01T00:18:23.368Z,28.04
2018-07-01T00:20:52.306Z,28.10
2018-07-01T00:23:20.814Z,28.22
2018-07-01T00:25:55.158Z,29.29
2018-07-01T00:28:23.684Z,28.33
2018-07-01T00:30:52.164Z,28.77
2018-07-01T00:33:21.096Z,28.75
2018-07-01T00:35:49.737Z,29.55
2018-07-01T00:38:20.502Z,29.42
2018-07-01T00:40:49.444Z,29.67
2018-07-01T00:43:17.984Z,29.49
2018-07-01T00:45:46.515Z,29.05
2018-07-01T00:48:16.624Z,29.06
2018-07-01T00:50:45.167Z,29.69
2018-07-01T00:53:13.696Z,29.05
2018-07-01T00:55:45.140Z,29.35
2018-07-01T00:58:13.605Z,29.35
2018-07-01T01:00:42.194Z,29.85
2018-07-01T01:03:10.708Z,29.46
2018-07-01T01:05:39.194Z,29.62
2018-07-01T01:08:08.318Z,30.20
2018-07-01T01:10:37.219Z,30.35
2018-07-01T01:13:05.897Z,29.20
2018-07-01T01:15:34.415Z,29.83
2018-07-01T01:18:05.236Z,30.25
2018-07-01T01:20:33.738Z,29.90
2018-07-01T01:23:13.243Z,29.72
2018-07-01T01:25:42.060Z,29.76
2018-07-01T01:28:10.570Z,30.05
2018-07-01T01:30:39.091Z,30.72
2018-07-01T01:33:08.094Z,30.66
2018-07-01T01:35:37.169Z,30.45
2018-07-01T01:38:05.939Z,30.99
2018-07-01T01:40:38.908Z,31.48
2018-07-01T01:43:11.083Z,30.61
2018-07-01T01:45:50.344Z,30.41
2018-07-01T01:48:28.332Z,30.89
2018-07-01T01:51:01.138Z,30.76
2018-07-01T01:54:04.600Z,30.92
2018-07-01T01:56:38.465Z,31.15
2018-07-01T01:59:20.853Z,31.70
2018-07-01T02:01:55.339Z,31.82
2018-07-01T02:04:33.888Z,31.20
2018-07-01T02:07:06.253Z,31.63
2018-07-01T02:09:39.134Z,32.16
2018-07-01T02:12:09.838Z,31.89
2018-07-01T02:14:54.797Z,31.57
2018-07-01T02:17:28.593Z,31.09
2018-07-01T02:19:57.175Z,31.88
2018-07-01T02:22:33.912Z,31.93
2018-07-01T02:25:05.073Z,32.22
2018-07-01T02:27:33.619Z,31.43
2018-07-01T02:30:04.806Z,31.71
2018-07-01T02:32:33.912Z,32.15
2018-07-01T02:35:02.485Z,32.29
2018-07-01T02:37:30.995Z,32.04
2018-07-01T02:40:06.336Z,32.38
2018-07-01T02:42:34.865Z,32.23
2018-07-01T02:45:03.869Z,32.64
2018-07-01T02:47:32.720Z,32.59
2018-07-01T02:50:01.248Z,32.89
2018-07-01T02:54:57.261Z,32.72
2018-07-01T02:57:26.167Z,33.36
2018-07-01T02:59:54.783Z,33.58
2018-07-01T03:02:29.114Z,33.77
2018-07-01T03:04:57.648Z,33.23
2018-07-01T03:07:26.764Z,33.44
2018-07-01T03:09:55.692Z,33.94
2018-07-01T03:12:24.205Z,32.90
2018-07-01T03:14:52.696Z,33.26
2018-07-01T03:17:21.636Z,33.91
2018-07-01T03:19:57.053Z,33.56
2018-07-01T03:22:25.836Z,34.20
2018-07-01T03:24:58.069Z,33.89
2018-07-01T03:27:26.589Z,34.70
2018-07-01T03:30:01.994Z,34.44
2018-07-01T03:32:30.459Z,33.97
2018-07-01T03:35:05.222Z,34.47
2018-07-01T03:37:34.150Z,34.78
2018-07-01T03:40:03.312Z,34.39
2018-07-01T03:42:31.871Z,35.01
2018-07-01T03:45:00.336Z,34.49
2018-07-01T03:47:28.815Z,34.84
2018-07-01T03:49:58.681Z,34.23
2018-07-01T03:52:27.197Z,34.55
2018-07-01T03:54:58.988Z,35.16
2018-07-01T03:57:28.037Z,34.66
2018-07-01T03:59:56.592Z,34.73
2018-07-01T04:02:25.117Z,34.82
2018-07-01T04:04:56.806Z,34.91
2018-07-01T04:07:25.424Z,34.72
2018-07-01T04:09:53.977Z,34.68
2018-07-01T04:12:28.594Z,34.86
2018-07-01T04:14:57.322Z,35.78
2018-07-01T04:17:31.874Z,35.25
2018-07-01T04:20:23.726Z,35.68
2018-07-01T04:22:57.071Z,35.28
2018-07-01T04:25:25.876Z,35.64
2018-07-01T04:27:54.440Z,35.06
2018-07-01T04:30:23.287Z,35.11
2018-07-01T04:32:52.278Z,34.91
2018-07-01T04:35:20.775Z,35.34
2018-07-01T04:37:49.308Z,35.08
2018-07-01T04:40:18.135Z,36.07
2018-07-01T04:42:46.618Z,35.67
2018-07-01T04:45:15.172Z,34.90
2018-07-01T04:47:43.924Z,35.70
2018-07-01T04:50:12.429Z,35.21
2018-07-01T04:52:40.981Z,34.55
2018-07-01T04:55:09.972Z,35.43
2018-07-01T04:57:38.461Z,35.26
2018-07-01T05:00:07.022Z,35.42
2018-07-01T05:02:35.883Z,34.46
2018-07-01T05:05:06.316Z,35.25
2018-07-01T05:07:34.840Z,35.17
2018-07-01T05:10:04.699Z,34.18
2018-07-01T05:12:33.229Z,34.08
2018-07-01T05:15:01.670Z,34.98
2018-07-01T05:17:30.495Z,34.75
2018-07-01T05:19:58.958Z,33.87
2018-07-01T05:22:27.488Z,34.28
2018-07-01T05:24:56.301Z,33.95
2018-07-01T05:27:25.041Z,33.39
2018-07-01T05:30:04.376Z,32.88
2018-07-01T05:32:33.128Z,32.86
2018-07-01T05:35:01.572Z,33.09
2018-07-01T05:37:30.139Z,33.59
2018-07-01T05:39:58.977Z,32.75
2018-07-01T05:42:27.531Z,32.71
2018-07-01T05:44:56.112Z,33.33
2018-07-01T05:47:24.949Z,32.48
2018-07-01T05:49:53.496Z,32.24
2018-07-01T05:52:28.593Z,32.60
2018-07-01T05:54:57.103Z,32.18
2018-07-01T05:57:30.715Z,31.61
2018-07-01T05:59:59.524Z,31.84
2018-07-01T06:02:28.049Z,31.34
2018-07-01T06:04:56.629Z,31.49
2018-07-01T06:07:25.449Z,31.16
2018-07-01T06:09:55.785Z,30.92
2018-07-01T06:12:24.383Z,30.55
2018-07-01T06:14:53.184Z,30.79
2018-07-01T06:17:21.725Z,31.04
2018-07-01T06:19:50.310Z,31.49
2018-07-01T06:22:19.146Z,30.41
2018-07-01T06:24:47.755Z,30.82
2018-07-01T06:27:16.365Z,30.67
2018-07-01T06:29:45.747Z,30.70
2018-07-01T06:32:14.319Z,30.96
2018-07-01T06:34:42.888Z,30.37
2018-07-01T06:37:11.420Z,30.11
2018-07-01T06:39:39.934Z,30.82
2018-07-01T06:42:08.719Z,30.65
2018-07-01T06:44:38.020Z,29.28
2018-07-01T06:47:06.575Z,29.84
2018-07-01T06:49:35.230Z,29.69
2018-07-01T06:52:04.476Z,30.16
2018-07-01T06:54:33.246Z,30.00
2018-07-01T06:57:02.856Z,29.16
2018-07-01T06:59:31.376Z,30.16
2018-07-01T07:04:35.069Z,28.95
2018-07-01T07:07:03.948Z,29.21
2018-07-01T07:09:32.477Z,30.12
2018-07-01T07:12:01.013Z,29.13
2018-07-01T07:14:30.095Z,29.44
2018-07-01T07:16:58.628Z,29.22
2018-07-01T07:19:27.768Z,29.95
2018-07-01T07:21:56.620Z,29.25
2018-07-01T07:24:25.190Z,29.89
2018-07-01T07:26:53.725Z,29.73
2018-07-01T07:29:22.224Z,28.80
2018-07-01T07:31:50.767Z,29.32
2018-07-01T07:34:19.535Z,29.35
2018-07-01T07:36:48.445Z,29.81
2018-07-01T07:39:22.480Z,29.33
2018-07-01T07:41:50.983Z,29.11
2018-07-01T07:44:19.495Z,28.90
2018-07-01T07:46:48.057Z,29.02
2018-07-01T07:49:16.884Z,29.36
2018-07-01T07:51:45.497Z,29.55
2018-07-01T07:54:14.112Z,29.42
2018-07-01T07:56:43.857Z,29.78
2018-07-01T07:59:12.425Z,29.26
2018-07-01T08:01:40.994Z,29.25
2018-07-01T08:04:09.861Z,29.38
2018-07-01T08:06:40.215Z,29.23
2018-07-01T08:09:10.126Z,29.00
2018-07-01T08:11:38.961Z,29.52
2018-07-01T08:14:07.676Z,28.26
2018-07-01T08:16:38.435Z,29.28
2018-07-01T08:19:07.245Z,28.58
2018-07-01T08:21:36.371Z,28.04
2018-07-01T08:24:06.058Z,29.09
2018-07-01T08:26:34.845Z,28.36
2018-07-01T08:29:04.381Z,28.85
2018-07-01T08:31:32.956Z,28.62
2018-07-01T08:34:03.245Z,28.49
2018-07-01T08:36:31.837Z,28.46
2018-07-01T08:39:00.435Z,28.76
2018-07-01T08:41:34.376Z,29.23
2018-07-01T08:44:06.356Z,28.54
2018-07-01T08:46:34.965Z,28.38
2018-07-01T08:49:05.746Z,29.45
2018-07-01T08:51:34.286Z,30.02
2018-07-01T08:54:03.732Z,30.03
2018-07-01T08:56:32.414Z,28.29
2018-07-01T09:01:40.536Z,30.47
2018-07-01T09:04:09.095Z,29.33
2018-07-01T09:06:37.595Z,29.96
2018-07-01T09:09:08.071Z,28.99
2018-07-01T09:11:36.616Z,29.04
2018-07-01T09:14:05.744Z,29.51
2018-07-01T09:16:34.986Z,29.68
2018-07-01T09:19:04.284Z,29.57
2018-07-01T09:21:32.810Z,29.56
2018-07-01T09:24:03.626Z,34.88
2018-07-01T09:26:32.152Z,30.35
2018-07-01T09:29:00.709Z,30.51
2018-07-01T09:31:39.620Z,30.36
2018-07-01T09:34:08.233Z,31.04
2018-07-01T09:36:37.095Z,29.70
2018-07-01T09:39:08.699Z,30.70
2018-07-01T09:41:37.224Z,28.91
2018-07-01T09:44:06.999Z,29.01
2018-07-01T09:46:36.058Z,29.90
2018-07-01T09:49:04.906Z,29.60
2018-07-01T09:51:33.861Z,29.96
2018-07-01T09:54:04.597Z,30.71
2018-07-01T09:56:33.185Z,29.11
2018-07-01T09:59:02.023Z,29.83
2018-07-01T10:01:35.412Z,29.59
2018-07-01T10:04:06.109Z,28.02
2018-07-01T10:06:34.731Z,28.19
2018-07-01T10:09:03.447Z,27.11
2018-07-01T10:11:33.272Z,27.99
2018-07-01T10:14:01.863Z,27.92
2018-07-01T10:16:30.436Z,27.21
2018-07-01T10:18:59.021Z,26.50
2018-07-01T10:21:32.311Z,27.84
2018-07-01T10:24:02.854Z,25.72
2018-07-01T10:26:31.493Z,27.15
2018-07-01T10:29:03.040Z,25.42
2018-07-01T10:31:31.879Z,27.17
2018-07-01T10:34:15.563Z,25.89
2018-07-01T10:36:44.404Z,25.53
2018-07-01T10:39:14.684Z,25.26
2018-07-01T10:41:48.088Z,26.21
2018-07-01T10:44:17.879Z,24.88
2018-07-01T10:46:48.605Z,24.27
2018-07-01T10:49:17.126Z,24.40
2018-07-01T10:51:49.054Z,24.03
2018-07-01T10:54:17.596Z,23.52
2018-07-01T10:56:49.604Z,23.01
2018-07-01T10:59:18.465Z,22.78
2018-07-01T11:01:46.970Z,23.72
2018-07-01T11:04:15.524Z,22.96
2018-07-01T11:06:44.348Z,23.19
2018-07-01T11:11:52.991Z,23.60
2018-07-01T11:14:21.823Z,23.25
2018-07-01T11:16:50.328Z,22.73
2018-07-01T11:19:18.892Z,22.71
2018-07-01T11:21:47.753Z,22.59
2018-07-01T11:24:16.345Z,22.21
2018-07-01T11:26:45.764Z,21.71
2018-07-01T11:29:14.527Z,22.17
2018-07-01T11:31:43.027Z,20.98
2018-07-01T11:34:11.601Z,20.58
2018-07-01T11:36:44.964Z,21.29
2018-07-01T11:39:13.530Z,20.68
2018-07-01T11:41:42.184Z,19.72
2018-07-01T11:44:11.078Z,20.42
2018-07-01T11:46:39.709Z,19.46
2018-07-01T11:49:08.222Z,19.04
2018-07-01T11:51:37.796Z,19.49
2018-07-01T11:54:06.355Z,18.49
2018-07-01T11:56:34.943Z,18.54
2018-07-01T11:59:04.252Z,19.08
2018-07-01T12:01:32.797Z,19.04
2018-07-01T12:04:01.345Z,18.24
2018-07-01T12:06:36.079Z,18.25
2018-07-01T12:09:06.812Z,17.87
2018-07-01T12:11:35.387Z,18.95
2018-07-01T12:14:07.220Z,18.43
2018-07-01T12:16:35.763Z,17.66
2018-07-01T12:19:07.364Z,18.23
2018-07-01T12:21:36.337Z,17.26
2018-07-01T12:24:05.638Z,16.71
2018-07-01T12:29:07.523Z,17.28
2018-07-01T12:31:40.988Z,16.35
2018-07-01T12:34:09.529Z,16.43
2018-07-01T12:36:39.899Z,16.98
2018-07-01T12:39:10.948Z,16.71
2018-07-01T12:41:39.440Z,16.25
2018-07-01T12:44:08.229Z,16.19
2018-07-01T12:46:36.773Z,15.92
2018-07-01T12:51:45.174Z,15.02
2018-07-01T12:54:13.696Z,15.05
2018-07-01T12:56:42.342Z,14.83
2018-07-01T12:59:16.788Z,13.74
2018-07-01T13:01:45.349Z,13.64
2018-07-01T13:04:13.853Z,12.85
2018-07-01T13:06:42.711Z,12.88
2018-07-01T13:09:12.886Z,12.52
2018-07-01T13:11:41.994Z,11.63
2018-07-01T13:14:16.637Z,11.99
2018-07-01T13:16:45.208Z,11.33
2018-07-01T13:19:13.791Z,11.10
2018-07-01T13:21:42.512Z,10.62
2018-07-01T13:24:11.184Z,11.04
2018-07-01T13:26:40.052Z,10.96
2018-07-01T13:29:08.647Z,10.52
2018-07-01T13:31:42.065Z,10.30
2018-07-01T13:34:10.849Z,9.95
2018-07-01T13:36:43.058Z,9.80
2018-07-01T13:39:12.142Z,9.72
2018-07-01T13:41:42.095Z,9.57
2018-07-01T13:44:12.693Z,8.77
2018-07-01T13:46:41.572Z,8.27
2018-07-01T13:49:16.343Z,8.28
2018-07-01T13:51:44.943Z,7.99
2018-07-01T13:54:13.484Z,7.89
2018-07-01T13:56:42.335Z,7.71
2018-07-01T13:59:10.989Z,6.66
2018-07-01T14:01:39.591Z,7.38
2018-07-01T14:04:08.465Z,6.28
2018-07-01T14:06:37.118Z,6.27
2018-07-01T14:09:08.551Z,6.34
2018-07-01T14:11:43.673Z,5.58
2018-07-01T14:14:12.322Z,5.61
2018-07-01T14:16:40.793Z,5.89
2018-07-01T14:19:10.636Z,5.89
2018-07-01T14:21:39.170Z,5.09
2018-07-01T14:24:07.836Z,5.70
2018-07-01T14:26:42.269Z,6.06
2018-07-01T14:29:10.752Z,5.07
2018-07-01T14:31:39.410Z,4.99
2018-07-01T14:34:08.365Z,4.66
2018-07-01T14:36:36.903Z,5.32
2018-07-01T14:39:17.594Z,5.17
2018-07-01T14:41:46.386Z,4.32
2018-07-01T14:44:14.923Z,4.41
2018-07-01T14:46:44.205Z,4.11
2018-07-01T14:49:19.735Z,4.56
2018-07-01T14:51:48.236Z,4.51
2018-07-01T14:54:16.789Z,4.53
2018-07-01T14:56:45.865Z,4.86
2018-07-01T14:59:25.208Z,4.38
2018-07-01T15:01:54.756Z,4.78
2018-07-01T15:04:23.279Z,4.68
2018-07-01T15:06:54.039Z,4.26
2018-07-01T15:09:22.888Z,4.03
2018-07-01T15:11:51.441Z,4.76
2018-07-01T15:14:24.804Z,4.49
2018-07-01T15:16:53.973Z,5.15
2018-07-01T15:19:22.525Z,4.67
2018-07-01T15:24:47.424Z,4.90
2018-07-01T15:27:16.483Z,5.26
2018-07-01T15:29:45.103Z,5.17
2018-07-01T15:32:13.636Z,4.87
2018-07-01T15:34:42.547Z,4.98
2018-07-01T15:37:11.578Z,5.99
2018-07-01T15:39:40.835Z,5.47
2018-07-01T15:42:09.371Z,6.72
2018-07-01T15:44:37.904Z,6.72
2018-07-01T15:47:06.764Z,7.23
2018-07-01T15:49:39.650Z,8.32
2018-07-01T15:52:08.231Z,9.39
2018-07-01T15:54:37.123Z,10.06
2018-07-01T15:57:05.864Z,10.64
2018-07-01T15:59:34.440Z,11.08
2018-07-01T16:02:04.948Z,10.88
2018-07-01T16:04:36.716Z,11.41
2018-07-01T16:07:05.288Z,12.37
2018-07-01T16:09:34.121Z,12.68
2018-07-01T16:12:03.134Z,11.75
2018-07-01T16:14:32.261Z,12.92
2018-07-01T16:17:02.132Z,12.27
2018-07-01T16:19:30.721Z,12.03
2018-07-01T16:21:59.248Z,12.34
2018-07-01T16:24:29.770Z,12.98
2018-07-01T16:27:03.495Z,13.76
2018-07-01T16:29:32.421Z,14.08
2018-07-01T16:32:01.258Z,14.25
2018-07-01T16:34:29.770Z,14.01
2018-07-01T16:36:58.285Z,14.26
2018-07-01T16:39:27.118Z,13.90
2018-07-01T16:41:55.761Z,13.98
2018-07-01T16:44:28.057Z,14.40
2018-07-01T16:46:56.864Z,15.01
2018-07-01T16:49:25.565Z,15.14
2018-07-01T16:51:54.301Z,15.19
2018-07-01T16:54:24.759Z,15.14
2018-07-01T16:56:53.397Z,15.79
2018-07-01T16:59:21.939Z,15.21
2018-07-01T17:01:50.799Z,15.27
2018-07-01T17:04:19.627Z,14.60
2018-07-01T17:06:48.115Z,15.12
2018-07-01T17:09:16.969Z,15.28
2018-07-01T17:11:45.504Z,16.36
2018-07-01T17:14:14.031Z,15.46
2018-07-01T17:16:45.932Z,15.97
2018-07-01T17:19:14.528Z,15.90
2018-07-01T17:21:43.163Z,15.80
2018-07-01T17:24:14.584Z,16.77
2018-07-01T17:26:43.936Z,16.22
2018-07-01T17:29:13.495Z,16.81
2018-07-01T17:31:47.454Z,16.43
2018-07-01T17:34:15.980Z,16.26
2018-07-01T17:36:44.519Z,17.12
2018-07-01T17:39:13.697Z,16.42
2018-07-01T17:41:42.197Z,17.67
2018-07-01T17:44:10.997Z,17.44
2018-07-01T17:46:39.911Z,17.01
2018-07-01T17:49:08.487Z,16.99
2018-07-01T17:51:37.021Z,17.06
2018-07-01T17:54:06.954Z,16.46
2018-07-01T17:56:35.536Z,17.80
2018-07-01T17:59:04.235Z,17.94
2018-07-01T18:01:33.114Z,18.37
2018-07-01T18:04:03.507Z,18.11
2018-07-01T18:06:32.028Z,18.55
2018-07-01T18:09:00.540Z,18.20
2018-07-01T18:11:29.059Z,18.06
2018-07-01T18:14:00.988Z,18.58
2018-07-01T18:16:29.602Z,19.58
2018-07-01T18:19:04.000Z,19.36
2018-07-01T18:21:48.140Z,18.41
2018-07-01T18:24:27.539Z,19.28
2018-07-01T18:26:30.908Z,18.65
2018-07-01T18:29:08.180Z,19.68
2018-07-01T18:31:28.332Z,19.53
2018-07-01T18:33:57.300Z,19.33
2018-07-01T18:36:25.882Z,19.28
2018-07-01T18:38:54.498Z,20.66
2018-07-01T18:41:23.367Z,19.55
2018-07-01T18:43:51.962Z,19.53
2018-07-01T18:46:20.528Z,19.79
2018-07-01T18:48:49.068Z,20.57
2018-07-01T18:51:17.614Z,21.01
2018-07-01T18:53:46.445Z,20.84
2018-07-01T18:56:15.023Z,20.25
2018-07-01T18:58:50.080Z,21.39
2018-07-01T19:01:18.648Z,20.91
2018-07-01T19:06:26.792Z,22.30
2018-07-01T19:08:55.888Z,22.21
2018-07-01T19:11:24.419Z,21.51
2018-07-01T19:13:56.239Z,22.44
2018-07-01T19:16:24.753Z,21.87
2018-07-01T19:18:55.263Z,21.73
2018-07-01T19:21:24.232Z,22.94
2018-07-01T19:23:52.716Z,22.13
2018-07-01T19:26:21.271Z,23.08
2018-07-01T19:28:51.548Z,22.30
2018-07-01T19:31:20.077Z,22.61
2018-07-01T19:33:48.979Z,22.53
2018-07-01T19:36:17.476Z,23.38
2018-07-01T19:38:46.047Z,22.48
2018-07-01T19:41:14.600Z,23.41
2018-07-01T19:43:43.221Z,23.65
2018-07-01T19:46:11.960Z,22.87
2018-07-01T19:48:40.558Z,23.60
2018-07-01T19:51:09.095Z,23.81
2018-07-01T19:53:37.610Z,23.21
2018-07-01T19:56:06.163Z,23.83
2018-07-01T19:58:34.703Z,24.03
2018-07-01T20:01:03.577Z,23.53
2018-07-01T20:03:32.128Z,24.13
2018-07-01T20:06:00.700Z,23.55
2018-07-01T20:08:29.224Z,24.50
2018-07-01T20:10:59.564Z,23.79
2018-07-01T20:13:28.105Z,24.14
2018-07-01T20:16:00.363Z,24.99
2018-07-01T20:18:28.788Z,24.08
2018-07-01T20:20:57.598Z,24.39
2018-07-01T20:23:26.555Z,24.70
2018-07-01T20:25:55.494Z,24.83
2018-07-01T20:28:24.035Z,24.94
2018-07-01T20:30:52.839Z,24.82
2018-07-01T20:33:26.099Z,25.03
2018-07-01T20:35:54.696Z,25.04
2018-07-01T20:38:25.622Z,24.77
2018-07-01T20:40:54.117Z,25.04
2018-07-01T20:43:22.656Z,25.53
2018-07-01T20:45:53.610Z,25.04
2018-07-01T20:48:22.117Z,25.57
2018-07-01T20:50:50.733Z,25.76
2018-07-01T20:53:19.591Z,25.69
2018-07-01T20:55:54.338Z,25.70
2018-07-01T20:58:22.891Z,26.16
2018-07-01T21:00:51.485Z,26.82
2018-07-01T21:03:19.992Z,26.23
2018-07-01T21:05:48.936Z,26.95
2018-07-01T21:08:23.578Z,27.21
2018-07-01T21:10:52.188Z,26.50
2018-07-01T21:13:20.669Z,26.67
2018-07-01T21:15:49.341Z,26.69
2018-07-01T21:18:18.072Z,26.90
2018-07-01T21:20:46.564Z,27.66
2018-07-01T21:23:15.483Z,27.75
2018-07-01T21:25:44.108Z,28.02
2018-07-01T21:28:12.665Z,27.97
2018-07-01T21:30:41.742Z,28.29
2018-07-01T21:33:10.284Z,27.54
2018-07-01T21:38:18.657Z,27.90
2018-07-01T21:40:47.150Z,28.65
2018-07-01T21:43:16.685Z,28.02
2018-07-01T21:45:45.243Z,28.73
2018-07-01T21:48:13.961Z,28.82
2018-07-01T21:50:42.872Z,28.68
2018-07-01T21:53:13.233Z,28.13
2018-07-01T21:55:41.807Z,28.46
2018-07-01T21:58:10.635Z,27.80
2018-07-01T22:00:39.210Z,28.52
2018-07-01T22:03:07.742Z,27.85
2018-07-01T22:05:36.247Z,28.52
2018-07-01T22:08:06.840Z,28.04
2018-07-01T22:10:46.689Z,27.84
2018-07-01T22:13:31.270Z,27.73
2018-07-01T22:16:08.403Z,28.59
2018-07-01T22:18:36.996Z,27.97
2018-07-01T22:21:11.332Z,28.47
2018-07-01T22:23:40.158Z,28.93
2018-07-01T22:26:08.762Z,27.87
2018-07-01T22:28:37.864Z,28.79
2018-07-01T22:31:06.496Z,28.78
2018-07-01T22:36:14.791Z,28.10
2018-07-01T22:38:43.572Z,29.04
2018-07-01T22:41:12.061Z,28.98
2018-07-01T22:43:44.033Z,29.24
2018-07-01T22:46:12.567Z,28.52
2018-07-01T22:48:41.284Z,29.15
2018-07-01T22:51:10.118Z,29.06
2018-07-01T22:53:38.694Z,28.44
2018-07-01T22:56:07.296Z,29.57
2018-07-01T22:58:36.136Z,29.32
2018-07-01T23:01:14.717Z,28.66
2018-07-01T23:03:43.292Z,28.55
2018-07-01T23:06:11.841Z,28.89
2018-07-01T23:08:40.406Z,29.19
2018-07-01T23:11:08.952Z,29.65
2018-07-01T23:13:40.508Z,28.82
2018-07-01T23:16:09.344Z,29.43
2018-07-01T23:18:39.287Z,29.26
2018-07-01T23:21:07.852Z,29.16
2018-07-01T23:23:36.372Z,29.75
2018-07-01T23:26:06.985Z,29.41
2018-07-01T23:28:36.103Z,30.01
2018-07-01T23:31:07.676Z,29.65
2018-07-01T23:33:36.193Z,30.16
2018-07-01T23:36:05.570Z,29.55
2018-07-01T23:38:34.113Z,30.33
2018-07-01T23:41:06.380Z,29.93
2018-07-01T23:43:34.940Z,29.82
2018-07-01T23:46:04.409Z,30.37
2018-07-01T23:48:33.268Z,30.81
2018-07-01T23:51:01.818Z,31.11
2018-07-01T23:53:30.320Z,30.34
2018-07-01T23:55:59.335Z,30.32
2018-07-01T23:58:27.884Z,30.20
